Time;durP1;ratioP1;P1;durP2;ratioP2;P2;SDS_P1;SDS_P2;PMS_P1;PMS_P2;Temp;Humidity;BMP_temperature;BMP_pressure;BME280_temperature;BME280_humidity;BME280_pressure;Samples;Min_cycle;Max_cycle;Signal;HPM_P1;HPM_P2
2021/07/04 00:00:41;;;;;;;20.63;10.73;;;;;;;20.24;62.06;99940.28;4936140;28;97113;-82
2021/07/04 00:03:07;;;;;;;15.80;10.98;;;;;;;20.10;62.27;99944.03;4937302;28;96862;-82
2021/07/04 00:05:37;;;;;;;15.95;10.32;;;;;;;20.06;62.17;99929.28;4935833;28;98077;-82
2021/07/04 00:08:04;;;;;;;15.57;10.25;;;;;;;20.16;62.13;99932.03;4951893;28;101987;-83
2021/07/04 00:10:33;;;;;;;13.23;10.68;;;;;;;19.98;62.54;99929.88;4945714;28;97544;-82
2021/07/04 00:12:59;;;;;;;15.50;10.43;;;;;;;19.77;63.08;99931.56;4935863;28;97313;-82
2021/07/04 00:15:27;;;;;;;13.30;10.35;;;;;;;19.68;63.28;99934.00;4919068;28;100219;-81
2021/07/04 00:17:53;;;;;;;14.55;10.40;;;;;;;19.60;63.35;99932.84;4936567;28;101378;-82
2021/07/04 00:20:19;;;;;;;12.10;9.65;;;;;;;19.62;63.17;99914.97;4937319;28;97224;-82
2021/07/04 00:22:46;;;;;;;12.98;9.82;;;;;;;19.81;62.55;99928.56;4936292;28;97431;-82
2021/07/04 00:25:14;;;;;;;15.05;10.43;;;;;;;19.94;62.57;99931.09;4936297;28;101539;-83
2021/07/04 00:27:39;;;;;;;13.82;10.60;;;;;;;19.82;62.89;99937.41;4935686;28;101610;-82
2021/07/04 00:30:08;;;;;;;11.68;9.70;;;;;;;19.82;62.85;99929.41;4931823;28;97526;-82
2021/07/04 00:32:33;;;;;;;13.88;10.25;;;;;;;19.75;63.11;99934.38;4934737;28;96993;-82
2021/07/04 00:34:59;;;;;;;12.25;10.10;;;;;;;19.66;63.33;99925.28;4934964;28;101483;-82
2021/07/04 00:37:24;;;;;;;13.07;9.77;;;;;;;19.70;63.10;99925.91;4935797;28;100576;-82
2021/07/04 00:39:50;;;;;;;19.73;10.43;;;;;;;19.70;63.06;99925.91;4952573;28;96514;-82
2021/07/04 00:42:15;;;;;;;12.93;9.70;;;;;;;19.48;63.34;99901.88;4937072;28;96933;-82
2021/07/04 00:44:43;;;;;;;12.77;10.15;;;;;;;19.37;64.04;99930.19;4935878;28;101605;-82
2021/07/04 00:47:08;;;;;;;14.57;10.20;;;;;;;19.48;63.90;99924.00;4920324;28;100598;-82
2021/07/04 00:49:34;;;;;;;13.10;9.85;;;;;;;19.49;63.62;99911.53;4935293;28;96616;-81
2021/07/04 00:52:00;;;;;;;13.98;9.73;;;;;;;19.61;63.42;99923.94;4942634;28;97343;-82
2021/07/04 00:54:27;;;;;;;12.40;9.20;;;;;;;19.56;63.75;99916.28;4950942;28;98952;-82
2021/07/04 00:56:53;;;;;;;14.95;8.88;;;;;;;19.50;63.75;99919.44;4934459;28;101053;-81
2021/07/04 00:59:20;;;;;;;13.95;9.60;;;;;;;19.50;63.46;99919.44;4936289;28;97021;-82
2021/07/04 01:01:46;;;;;;;11.07;9.00;;;;;;;19.40;63.64;99907.78;4935692;28;97425;-82
2021/07/04 01:04:12;;;;;;;11.82;9.18;;;;;;;19.34;64.09;99905.59;4936183;28;101227;-82
2021/07/04 01:06:39;;;;;;;12.32;9.98;;;;;;;19.24;64.42;99908.13;4919752;28;100877;-82
2021/07/04 01:09:05;;;;;;;12.52;9.55;;;;;;;19.15;64.32;99903.50;4936443;28;97132;-82
2021/07/04 01:11:33;;;;;;;14.00;8.90;;;;;;;19.21;64.62;99914.53;4918128;28;96872;-81
2021/07/04 01:13:58;;;;;;;11.48;9.27;;;;;;;19.28;64.18;99908.72;4932997;28;101910;-81
2021/07/04 01:16:27;;;;;;;15.00;9.10;;;;;;;19.12;64.55;99904.59;4916015;28;101245;-81
2021/07/04 01:18:53;;;;;;;12.35;9.35;;;;;;;19.07;65.00;99916.53;4931206;28;96764;-82
2021/07/04 01:21:29;;;;;;;13.55;9.93;;;;;;;19.10;64.81;99916.31;4949477;28;96944;-82
2021/07/04 01:23:56;;;;;;;13.98;9.88;;;;;;;19.07;64.97;99925.38;4932509;28;102082;-82
2021/07/04 01:26:22;;;;;;;14.57;10.07;;;;;;;18.94;65.12;99913.97;4932792;28;98208;-82
2021/07/04 01:28:47;;;;;;;16.85;9.90;;;;;;;18.90;64.95;99912.50;4948407;28;97432;-81
2021/07/04 01:31:13;;;;;;;15.55;9.52;;;;;;;18.99;65.10;99922.44;4916672;28;96874;-81
2021/07/04 01:33:49;;;;;;;13.32;9.32;;;;;;;18.96;65.21;99915.53;4929514;28;100561;-81
2021/07/04 01:36:31;;;;;;;12.00;8.90;;;;;;;19.02;64.76;99911.56;4930975;28;101767;-81
2021/07/04 01:38:57;;;;;;;13.10;9.20;;;;;;;19.03;64.91;99917.75;4914710;28;96713;-81
2021/07/04 01:41:23;;;;;;;12.60;9.77;;;;;;;18.98;65.10;99912.78;4900521;28;96855;-82
2021/07/04 01:43:51;;;;;;;13.80;9.68;;;;;;;18.98;64.74;99907.44;4931393;28;98182;-81
2021/07/04 01:46:22;;;;;;;13.85;9.88;;;;;;;18.75;65.20;99895.88;4916498;28;101887;-82
2021/07/04 01:48:49;;;;;;;12.43;9.10;;;;;;;18.69;65.68;99909.59;4932017;28;97010;-81
2021/07/04 01:51:18;;;;;;;14.60;9.68;;;;;;;18.55;65.82;99903.47;4932629;28;96924;-82
2021/07/04 01:53:43;;;;;;;12.68;9.77;;;;;;;18.75;65.68;99909.16;4921724;28;101364;-81
2021/07/04 01:56:16;;;;;;;15.02;9.73;;;;;;;18.91;65.02;99907.06;4916069;28;101227;-81
2021/07/04 01:58:52;;;;;;;15.93;9.60;;;;;;;18.89;65.05;99913.47;4915840;28;96740;-81
2021/07/04 02:01:29;;;;;;;18.05;10.25;;;;;;;18.79;65.29;99910.63;4932115;28;96914;-82
2021/07/04 02:03:55;;;;;;;14.95;9.88;;;;;;;18.59;65.67;99890.84;4914945;28;100014;-82
2021/07/04 02:06:21;;;;;;;13.82;9.68;;;;;;;18.70;65.68;99912.16;4900098;28;101140;-82
2021/07/04 02:08:49;;;;;;;12.95;9.77;;;;;;;18.66;65.73;99912.50;4900065;28;97038;-82
2021/07/04 02:11:16;;;;;;;13.07;9.73;;;;;;;18.62;65.92;99914.53;4916598;28;97231;-82
2021/07/04 02:13:46;;;;;;;11.80;9.43;;;;;;;18.60;65.77;99908.47;4898443;28;101849;-81
2021/07/04 02:16:19;;;;;;;11.13;9.25;;;;;;;18.60;65.69;99907.63;4930039;28;102162;-81
2021/07/04 02:18:52;;;;;;;13.68;8.82;;;;;;;18.70;65.34;99912.16;4930237;28;96965;-82
2021/07/04 02:21:55;;;;;;;15.30;9.25;;;;;;;18.66;65.42;99902.69;4920151;28;97262;-82
2021/07/04 02:24:38;;;;;;;14.63;9.35;;;;;;;18.69;65.88;99922.88;4931592;28;99471;-80
2021/07/04 02:27:13;;;;;;;10.70;8.55;;;;;;;18.65;65.58;99911.66;4932367;28;98425;-82
2021/07/04 02:30:03;;;;;;;13.88;9.57;;;;;;;18.65;65.18;99906.31;4937509;28;96993;-82
2021/07/04 02:32:33;;;;;;;;;;;;;;;18.44;66.33;99926.50;4923751;28;96743;-82
2021/07/04 02:34:59;;;;;;;11.43;9.63;;;;;;;18.32;66.44;99929.09;4935979;28;98657;-81
2021/07/04 02:37:26;;;;;;;11.38;9.57;;;;;;;18.31;66.54;99931.84;4937125;28;101573;-81
2021/07/04 02:40:03;;;;;;;11.88;9.27;;;;;;;18.19;66.84;99922.97;4953618;28;96775;-82
2021/07/04 02:42:29;;;;;;;13.90;10.38;;;;;;;18.22;66.82;99928.06;4954073;28;96930;-82
2021/07/04 02:44:56;;;;;;;14.15;10.43;;;;;;;18.27;66.81;99933.06;4937480;28;100680;-82
2021/07/04 02:47:24;;;;;;;15.00;9.73;;;;;;;18.41;66.28;99940.00;4939183;28;101063;-82
2021/07/04 02:49:53;;;;;;;15.00;10.48;;;;;;;18.43;66.14;99938.09;4954109;28;97043;-82
2021/07/04 02:52:19;;;;;;;11.98;9.50;;;;;;;18.33;66.38;99930.78;4938511;28;97656;-81
2021/07/04 02:54:45;;;;;;;14.75;9.50;;;;;;;18.29;65.85;99905.38;4937005;28;101497;-81
2021/07/04 02:57:20;;;;;;;12.02;9.20;;;;;;;18.45;65.70;99921.06;4934690;28;99821;-81
2021/07/04 02:59:47;;;;;;;12.07;9.48;;;;;;;18.64;65.11;99933.84;4936757;28;96930;-81
2021/07/04 03:02:14;;;;;;;13.70;9.60;;;;;;;18.36;66.08;99926.22;4937512;28;97218;-81
2021/07/04 03:04:47;;;;;;;12.25;9.65;;;;;;;18.18;66.27;99918.63;4937456;28;100023;-81
2021/07/04 03:07:13;;;;;;;14.25;10.35;;;;;;;18.24;66.56;99939.44;4937916;28;101765;-82
2021/07/04 03:09:42;;;;;;;13.68;9.45;;;;;;;18.38;66.02;99933.09;4937694;28;96654;-81
2021/07/04 03:12:11;;;;;;;12.40;9.45;;;;;;;18.40;65.77;99935.66;4939225;28;96844;-82
2021/07/04 03:14:37;;;;;;;20.00;9.98;;;;;;;18.36;65.49;99927.06;4921645;28;101366;-82
2021/07/04 03:17:04;;;;;;;12.80;9.88;;;;;;;18.42;65.69;99934.59;4956151;28;98418;-82
2021/07/04 03:19:30;;;;;;;12.43;9.07;;;;;;;18.33;66.22;99940.56;4972533;28;96990;-82
2021/07/04 03:21:57;;;;;;;14.10;9.82;;;;;;;18.31;66.17;99940.66;4972155;28;97657;-81
2021/07/04 03:24:23;;;;;;;11.82;9.88;;;;;;;18.37;66.05;99941.19;4939585;28;101036;-82
2021/07/04 03:26:49;;;;;;;13.85;9.23;;;;;;;18.53;65.80;99941.78;4940084;28;100668;-82
2021/07/04 03:29:16;;;;;;;16.70;9.70;;;;;;;18.51;65.81;99943.69;4958632;28;96982;-82
2021/07/04 03:31:43;;;;;;;13.57;10.10;;;;;;;18.67;65.24;99940.75;4976172;28;96847;-81
2021/07/04 03:34:10;;;;;;;22.13;10.63;;;;;;;18.87;64.29;99932.19;4960372;28;101801;-82
2021/07/04 03:36:36;;;;;;;12.88;10.95;;;;;;;18.71;64.84;99937.78;4960243;28;100010;-82
2021/07/04 03:39:07;;;;;;;18.13;10.40;;;;;;;18.90;64.76;99936.44;4937874;28;96885;-81
2021/07/04 03:41:34;;;;;;;12.50;10.07;;;;;;;18.90;64.59;99925.78;4939702;28;97540;-82
2021/07/04 03:44:01;;;;;;;11.68;9.70;;;;;;;19.13;63.54;99924.91;4954536;28;98137;-83
2021/07/04 03:46:28;;;;;;;12.70;10.65;;;;;;;19.26;63.33;99929.28;4940665;28;98104;-83
2021/07/04 03:48:54;;;;;;;12.50;9.82;;;;;;;19.26;63.37;99939.91;4956287;28;97458;-83
2021/07/04 03:51:26;;;;;;;14.77;10.38;;;;;;;19.38;63.20;99944.34;4941729;28;96688;-83
2021/07/04 03:53:53;;;;;;;13.50;9.77;;;;;;;19.46;62.86;99933.94;4955987;28;99274;-83
2021/07/04 03:56:20;;;;;;;14.15;10.40;;;;;;;19.58;62.75;99948.13;4940523;28;101290;-82
2021/07/04 03:58:48;;;;;;;17.02;11.73;;;;;;;19.74;62.10;99945.13;4933728;28;97379;-82
2021/07/04 04:01:21;;;;;;;10.93;9.48;;;;;;;19.70;62.50;99949.84;4936875;28;96940;-83
2021/07/04 04:03:50;;;;;;;11.63;10.43;;;;;;;19.61;62.83;99950.53;4936611;28;100914;-83
2021/07/04 04:06:17;;;;;;;12.85;10.40;;;;;;;19.47;63.40;99945.44;4936645;28;97848;-82
2021/07/04 04:08:47;;;;;;;12.67;10.73;;;;;;;19.74;62.82;99947.81;4936690;28;96598;-82
2021/07/04 04:11:19;;;;;;;13.80;10.15;;;;;;;19.64;63.40;99951.16;4938290;28;97088;-83
2021/07/04 04:13:49;;;;;;;12.88;10.82;;;;;;;19.59;63.46;99950.66;4936152;28;101269;-82
2021/07/04 04:16:20;;;;;;;14.25;10.90;;;;;;;19.82;62.96;99948.06;4937559;28;99759;-83
2021/07/04 04:18:47;;;;;;;14.38;11.07;;;;;;;20.05;61.84;99941.75;4936406;28;96692;-82
2021/07/04 04:21:16;;;;;;;14.60;11.10;;;;;;;20.15;61.31;99941.84;4936562;28;97106;-82
2021/07/04 04:23:45;;;;;;;14.52;11.02;;;;;;;20.15;61.09;99941.00;4955435;28;98172;-81
2021/07/04 04:26:14;;;;;;;15.50;11.13;;;;;;;20.22;60.71;99924.44;4955379;28;101604;-83
2021/07/04 04:28:40;;;;;;;14.00;11.70;;;;;;;20.35;60.63;99926.94;4956270;28;97051;-83
2021/07/04 04:31:07;;;;;;;19.15;12.10;;;;;;;20.50;60.21;99933.69;4939389;28;97673;-82
2021/07/04 04:33:33;;;;;;;17.83;11.57;;;;;;;20.71;59.49;99941.78;4939123;28;101799;-82
2021/07/04 04:36:00;;;;;;;14.85;12.30;;;;;;;20.88;59.16;99947.53;4923033;28;102160;-82
2021/07/04 04:38:25;;;;;;;13.18;11.80;;;;;;;21.05;58.50;99946.13;4940046;28;96591;-83
2021/07/04 04:40:51;;;;;;;17.83;11.77;;;;;;;21.23;58.32;99948.13;4970359;28;96804;-82
2021/07/04 04:43:16;;;;;;;18.42;12.77;;;;;;;21.47;57.71;99939.03;4938299;28;101404;-82
2021/07/04 04:45:42;;;;;;;14.30;12.07;;;;;;;21.65;57.21;99952.63;4938461;28;101881;-82
2021/07/04 04:48:07;;;;;;;19.92;12.15;;;;;;;21.86;57.08;99948.09;4938432;28;96703;-82
2021/07/04 04:50:34;;;;;;;14.20;11.55;;;;;;;22.00;56.64;99935.34;4940193;28;96939;-82
2021/07/04 04:53:00;;;;;;;19.52;13.07;;;;;;;22.18;56.08;99941.78;4938339;28;101475;-82
2021/07/04 04:55:25;;;;;;;15.30;11.30;;;;;;;22.32;55.58;99936.06;4938787;28;101785;-83
2021/07/04 04:57:51;;;;;;;13.15;11.18;;;;;;;22.57;55.36;99945.41;4954997;28;96589;-83
2021/07/04 05:00:17;;;;;;;15.18;10.25;;;;;;;22.68;55.06;99947.09;4939965;28;96935;-83
2021/07/04 05:02:43;;;;;;;11.63;9.70;;;;;;;22.97;54.73;99946.28;4953084;28;98543;-83
2021/07/04 05:05:09;;;;;;;15.05;11.55;;;;;;;22.96;54.28;99945.47;4953429;28;98060;-82
2021/07/04 05:07:35;;;;;;;12.85;10.23;;;;;;;23.17;54.39;99937.28;4922767;28;96706;-82
2021/07/04 05:10:01;;;;;;;16.83;11.02;;;;;;;23.41;53.38;99938.66;4939052;28;97261;-83
2021/07/04 05:12:28;;;;;;;14.65;10.05;;;;;;;23.57;52.95;99943.41;4939398;28;101963;-83
2021/07/04 05:14:54;;;;;;;12.32;10.90;;;;;;;23.48;52.38;99927.22;4938818;28;101942;-83
2021/07/04 05:17:20;;;;;;;13.52;11.02;;;;;;;23.59;52.24;99928.03;4939371;28;96960;-83
2021/07/04 05:19:46;;;;;;;15.43;10.23;;;;;;;23.78;52.63;99933.38;4939805;28;97199;-83
2021/07/04 05:22:12;;;;;;;14.98;10.18;;;;;;;24.15;51.63;99935.19;4943886;28;98676;-83
2021/07/04 05:24:38;;;;;;;11.50;9.55;;;;;;;24.28;51.53;99926.78;4921772;28;100205;-83
2021/07/04 05:27:03;;;;;;;12.25;9.07;;;;;;;24.63;50.64;99931.38;4937197;28;97003;-83
2021/07/04 05:29:29;;;;;;;14.10;9.18;;;;;;;24.77;49.85;99932.69;4954628;28;97076;-83
2021/07/04 05:31:55;;;;;;;13.63;9.18;;;;;;;24.85;49.52;99932.78;4922316;28;101215;-83
2021/07/04 05:34:20;;;;;;;10.23;8.80;;;;;;;25.17;49.28;99929.56;4938887;28;101853;-83
2021/07/04 05:36:48;;;;;;;12.38;9.30;;;;;;;25.30;48.11;99939.91;4939300;28;97263;-83
2021/07/04 05:39:14;;;;;;;11.07;8.85;;;;;;;25.28;48.44;99928.50;4939523;28;96871;-83
2021/07/04 05:41:40;;;;;;;11.82;8.57;;;;;;;25.75;48.12;99941.56;4955366;28;98539;-84
2021/07/04 05:44:05;;;;;;;12.10;8.90;;;;;;;25.92;47.85;99939.84;4941954;28;100778;-83
2021/07/04 05:46:34;;;;;;;11.07;8.68;;;;;;;26.47;46.54;99931.31;4918131;28;96707;-83
2021/07/04 05:49:00;;;;;;;11.38;7.15;;;;;;;26.76;46.47;99933.59;4934248;28;96941;-82
2021/07/04 05:51:26;;;;;;;14.20;8.60;;;;;;;27.29;44.83;99932.28;4919536;28;97968;-83
2021/07/04 05:53:51;;;;;;;11.05;8.20;;;;;;;27.73;43.78;99909.44;4918220;28;101311;-82
2021/07/04 05:56:17;;;;;;;11.25;7.32;;;;;;;28.65;42.60;99934.88;4919377;28;96601;-83
2021/07/04 05:58:43;;;;;;;11.02;7.55;;;;;;;29.34;41.37;99928.63;4903627;28;96984;-83
2021/07/04 06:01:08;;;;;;;12.40;7.28;;;;;;;29.51;40.47;99924.72;4934452;28;101725;-84
2021/07/04 06:03:34;;;;;;;10.88;7.38;;;;;;;30.14;38.71;99913.56;4920757;28;101154;-84
2021/07/04 06:06:00;;;;;;;9.82;7.00;;;;;;;31.22;37.71;99917.25;4955125;28;97603;-84
2021/07/04 06:08:25;;;;;;;6.60;5.93;;;;;;;32.34;35.91;99929.84;4941367;28;97108;-84
2021/07/04 06:10:51;;;;;;;6.70;6.05;;;;;;;32.69;35.34;99926.00;4940250;28;101477;-83
2021/07/04 06:13:18;;;;;;;6.82;6.13;;;;;;;31.89;35.80;99910.41;4941531;28;101679;-84
2021/07/04 06:15:44;;;;;;;8.82;6.10;;;;;;;31.82;35.74;99918.50;4958774;28;96984;-84
2021/07/04 06:18:10;;;;;;;8.68;6.80;;;;;;;31.95;34.76;99921.34;4958267;28;97064;-84
2021/07/04 06:20:35;;;;;;;7.20;6.50;;;;;;;32.52;33.97;99913.84;4958354;28;96889;-84
2021/07/04 06:23:01;;;;;;;7.75;5.70;;;;;;;33.39;33.34;99917.50;4940967;28;101431;-84
2021/07/04 06:25:26;;;;;;;7.63;6.55;;;;;;;33.99;32.72;99922.84;4959364;28;97480;-84
2021/07/04 06:27:52;;;;;;;8.73;6.15;;;;;;;34.65;31.86;99911.69;4940715;28;97345;-83
2021/07/04 06:30:18;;;;;;;7.28;6.00;;;;;;;33.39;33.79;99919.38;4939540;28;97834;-84
2021/07/04 06:32:44;;;;;;;7.40;6.30;;;;;;;32.74;34.42;99927.28;4924813;28;101524;-84
2021/07/04 06:35:11;;;;;;;12.23;6.50;;;;;;;32.47;34.74;99919.91;4924439;28;96936;-84
2021/07/04 06:37:37;;;;;;;7.55;6.30;;;;;;;34.07;33.27;99919.91;4925499;28;97185;-83
2021/07/04 06:40:04;;;;;;;6.30;5.50;;;;;;;34.54;31.93;99909.63;4940992;28;97914;-84
2021/07/04 06:42:30;;;;;;;8.45;5.85;;;;;;;34.28;32.23;99912.50;4941317;28;101983;-84
2021/07/04 06:44:55;;;;;;;7.10;5.40;;;;;;;35.50;30.54;99908.50;4972761;28;96697;-83
2021/07/04 06:47:21;;;;;;;5.78;5.15;;;;;;;36.48;29.37;99907.59;4936637;28;96981;-84
2021/07/04 06:49:47;;;;;;;11.85;5.38;;;;;;;36.77;28.40;99905.09;4940282;28;100897;-84
2021/07/04 06:52:12;;;;;;;5.25;4.60;;;;;;;37.73;27.70;99908.53;4939735;28;100050;-85
2021/07/04 06:54:38;;;;;;;5.63;4.95;;;;;;;38.03;27.36;99902.88;4941359;28;96805;-84
2021/07/04 06:59:48;;;;;;;6.50;5.70;;;;;;;39.00;26.31;99903.06;4960006;28;98457;-85
2021/07/04 07:02:13;;;;;;;6.05;4.65;;;;;;;39.32;26.49;99895.09;4940086;28;101056;-85
2021/07/04 07:04:39;;;;;;;5.07;4.47;;;;;;;39.87;24.47;99902.47;4925296;28;96607;-85
2021/07/04 07:07:05;;;;;;;4.68;4.28;;;;;;;39.50;25.30;99894.78;4954633;28;96881;-85
2021/07/04 07:09:30;;;;;;;5.45;4.22;;;;;;;39.54;25.79;99906.13;4923821;28;101101;-85
2021/07/04 07:11:56;;;;;;;6.53;4.45;;;;;;;40.12;24.82;99899.22;4923325;28;101086;-84
2021/07/04 07:14:21;;;;;;;4.60;4.20;;;;;;;40.48;24.05;99902.38;4974270;28;96840;-85
2021/07/04 07:16:48;;;;;;;4.38;3.85;;;;;;;40.21;23.95;99883.94;4924567;28;96864;-85
2021/07/04 07:19:14;;;;;;;4.30;3.90;;;;;;;40.36;23.78;99891.53;4956804;28;97541;-85
2021/07/04 07:21:40;;;;;;;5.80;4.68;;;;;;;40.34;23.91;99899.19;4924731;28;100955;-85
2021/07/04 07:24:05;;;;;;;4.85;4.35;;;;;;;40.61;24.22;99899.22;4923773;28;97334;-85
2021/07/04 07:26:32;;;;;;;6.13;4.38;;;;;;;40.57;23.57;99878.81;4924452;28;96949;-83
2021/07/04 07:28:58;;;;;;;4.88;4.07;;;;;;;40.34;23.68;99879.13;4937071;28;98372;-84
2021/07/04 07:31:23;;;;;;;4.88;3.60;;;;;;;40.69;24.04;99876.75;4938739;28;101515;-85
2021/07/04 07:33:49;;;;;;;5.93;4.03;;;;;;;40.50;23.45;99868.03;4956053;28;96949;-84
2021/07/04 07:36:14;;;;;;;4.70;4.03;;;;;;;40.50;23.28;99880.94;4939917;28;97070;-85
2021/07/04 07:38:40;;;;;;;6.32;4.45;;;;;;;41.10;23.12;99870.75;4957019;28;97648;-85
2021/07/04 07:41:06;;;;;;;6.47;4.07;;;;;;;41.15;23.43;99876.31;4956158;28;101457;-85
2021/07/04 07:43:32;;;;;;;4.07;3.67;;;;;;;41.15;23.64;99879.06;4940880;28;97001;-85
2021/07/04 07:45:58;;;;;;;4.38;3.97;;;;;;;41.34;23.39;99869.28;4940479;28;97017;-85
2021/07/04 07:48:24;;;;;;;6.07;3.78;;;;;;;41.43;23.00;99861.34;4945976;28;98620;-85
2021/07/04 07:50:58;;;;;;;4.32;3.45;;;;;;;40.30;23.02;99872.50;4924985;28;101043;-84
2021/07/04 07:53:24;;;;;;;4.53;3.72;;;;;;;40.96;22.51;99862.13;4938714;28;97139;-85
2021/07/04 07:55:49;;;;;;;4.85;3.55;;;;;;;40.32;22.88;99864.81;4940114;28;96906;-85
2021/07/04 07:58:16;;;;;;;4.85;4.10;;;;;;;41.00;23.33;99859.66;4955874;28;97537;-85
2021/07/04 08:00:45;;;;;;;;;;;;;;;41.49;22.27;99856.75;4941684;28;97822;-85
2021/07/04 08:03:13;;;;;;;5.43;4.22;;;;;;;42.01;22.35;99864.97;4940007;28;97171;-85
2021/07/04 08:05:39;;;;;;;;;;;;;;;41.90;22.09;99855.00;4941261;28;97129;-85
2021/07/04 08:08:05;;;;;;;3.90;3.30;;;;;;;42.12;21.67;99853.94;4923250;28;101037;-86
2021/07/04 08:10:36;;;;;;;3.55;3.25;;;;;;;42.19;21.95;99852.59;4921156;28;101697;-85
2021/07/04 08:13:03;;;;;;;4.28;3.63;;;;;;;42.70;21.44;99846.31;4938201;28;96807;-84
2021/07/04 08:15:29;;;;;;;4.47;4.03;;;;;;;42.20;21.59;99839.66;4955912;28;96747;-85
2021/07/04 08:17:56;;;;;;;3.92;3.55;;;;;;;42.28;21.51;99850.97;4940056;28;98776;-85
2021/07/04 08:20:22;;;;;;;3.88;3.58;;;;;;;42.50;20.78;99836.13;4922895;28;101253;-85
2021/07/04 08:22:48;;;;;;;3.88;3.55;;;;;;;42.81;21.15;99842.50;4939991;28;96640;-85
2021/07/04 08:25:14;;;;;;;4.55;3.47;;;;;;;42.77;20.58;99826.78;4938791;28;96881;-85
2021/07/04 08:27:40;;;;;;;3.90;3.42;;;;;;;42.86;20.38;99836.97;4923485;28;100790;-84
2021/07/04 08:30:08;;;;;;;3.55;3.25;;;;;;;42.72;19.58;99833.94;4929165;28;101359;-85
2021/07/04 08:32:33;;;;;;;7.07;3.90;;;;;;;42.65;20.28;99838.91;4919607;28;97082;-83
2021/07/04 08:34:59;;;;;;;3.97;3.55;;;;;;;42.68;20.58;99832.00;4903176;28;96953;-85
2021/07/04 08:37:25;;;;;;;4.65;3.75;;;;;;;42.77;21.17;99829.56;4922285;28;100780;-84
2021/07/04 08:39:50;;;;;;;4.10;3.20;;;;;;;43.16;20.68;99821.50;4938523;28;101195;-85
2021/07/04 08:42:18;;;;;;;4.25;3.65;;;;;;;43.42;20.18;99825.00;4938727;28;96743;-85
2021/07/04 08:44:52;;;;;;;5.70;3.47;;;;;;;42.64;20.12;99822.59;4939442;28;97232;-85
2021/07/04 08:47:19;;;;;;;5.60;3.60;;;;;;;43.40;20.54;99822.53;4938549;28;101790;-84
2021/07/04 08:49:46;;;;;;;3.35;3.15;;;;;;;43.38;20.26;99812.88;4939280;28;101400;-84
2021/07/04 08:52:11;;;;;;;3.85;3.50;;;;;;;43.35;20.37;99824.50;4938957;28;96680;-84
2021/07/04 08:54:37;;;;;;;3.80;3.50;;;;;;;42.69;20.54;99817.09;4923913;28;96692;-84
2021/07/04 08:57:08;;;;;;;3.72;3.40;;;;;;;43.63;20.02;99815.53;4939614;28;97495;-84
2021/07/04 08:59:35;;;;;;;5.60;3.65;;;;;;;42.65;21.06;99813.25;4956013;28;97887;-83
2021/07/04 09:02:01;;;;;;;5.13;3.20;;;;;;;41.31;21.67;99817.53;4939141;28;96935;-83
2021/07/04 09:04:27;;;;;;;4.97;3.22;;;;;;;39.32;23.07;99805.34;4938592;28;97510;-83
2021/07/04 09:06:53;;;;;;;5.38;3.30;;;;;;;36.62;25.71;99819.94;4939192;28;101613;-83
2021/07/04 09:09:31;;;;;;;4.18;3.10;;;;;;;35.88;26.32;99814.66;4938438;28;100939;-83
2021/07/04 09:12:05;;;;;;;6.10;3.30;;;;;;;34.30;28.13;99818.63;4939634;28;96905;-83
2021/07/04 09:14:34;;;;;;;6.32;4.03;;;;;;;33.59;29.15;99819.56;4954528;28;96867;-83
2021/07/04 09:17:01;;;;;;;5.10;3.88;;;;;;;33.38;29.57;99801.59;4922909;28;101507;-83
2021/07/04 09:19:27;;;;;;;3.83;3.53;;;;;;;32.17;29.66;99804.47;4938992;28;98358;-83
2021/07/04 09:22:10;;;;;;;4.38;3.90;;;;;;;32.17;30.35;99818.91;4939294;28;96636;-83
2021/07/04 09:24:38;;;;;;;5.32;3.63;;;;;;;32.28;30.11;99820.16;4939449;28;96750;-83
2021/07/04 09:27:05;;;;;;;5.93;3.67;;;;;;;31.00;31.96;99798.03;4938387;28;101885;-83
2021/07/04 09:29:47;;;;;;;4.35;3.47;;;;;;;31.63;30.35;99817.00;4937617;28;101669;-83
2021/07/04 09:32:18;;;;;;;4.10;3.67;;;;;;;31.81;30.23;99819.16;4922334;28;96641;-83
2021/07/04 09:35:12;;;;;;;4.20;3.80;;;;;;;30.30;32.93;99815.94;4955843;28;96984;-83
2021/07/04 09:37:46;;;;;;;4.85;3.95;;;;;;;30.80;32.19;99805.16;4936864;28;98795;-82
2021/07/04 09:40:26;;;;;;;4.10;3.70;;;;;;;29.85;33.55;99806.25;4938918;28;101383;-83
2021/07/04 09:43:19;;;;;;;6.03;4.15;;;;;;;29.89;33.57;99815.66;4942965;28;96703;-83
2021/07/04 09:45:46;;;;;;;4.47;4.07;;;;;;;29.87;33.85;99813.13;4956031;28;96954;-83
2021/07/04 09:48:21;;;;;;;4.47;3.90;;;;;;;30.10;33.60;99812.13;4941581;28;101277;-82
2021/07/04 09:50:49;;;;;;;7.05;3.90;;;;;;;29.48;34.57;99791.81;4958936;28;98145;-83
2021/07/04 09:53:16;;;;;;;4.35;3.85;;;;;;;29.52;34.24;99806.59;4957231;28;96605;-83
2021/07/04 09:55:42;;;;;;;7.10;4.40;;;;;;;29.19;34.16;99792.66;4942398;28;96848;-83
2021/07/04 09:58:12;;;;;;;4.93;3.65;;;;;;;29.56;34.15;99808.75;4925913;28;101170;-83
2021/07/04 10:00:39;;;;;;;;;;;;;;;29.16;34.54;99812.75;4942403;28;101204;-83
2021/07/04 10:03:08;;;;;;;4.88;4.13;;;;;;;29.28;34.64;99815.84;4926282;28;97004;-83
2021/07/04 10:05:36;;;;;;;4.35;3.95;;;;;;;29.43;34.55;99813.16;4975254;28;96829;-83
2021/07/04 10:08:17;;;;;;;6.15;4.05;;;;;;;29.58;34.04;99807.72;4958285;28;98740;-83
2021/07/04 10:10:43;;;;;;;5.30;3.92;;;;;;;29.84;34.30;99791.88;4926251;28;101438;-83
2021/07/04 10:13:08;;;;;;;4.07;3.65;;;;;;;30.23;34.44;99790.69;4942062;28;96700;-83
2021/07/04 10:15:34;;;;;;;5.13;4.22;;;;;;;30.11;34.46;99798.44;4941769;28;96945;-83
2021/07/04 10:18:00;;;;;;;4.80;4.22;;;;;;;29.97;34.26;99786.63;4941118;28;101364;-83
2021/07/04 10:20:26;;;;;;;6.68;3.88;;;;;;;29.87;33.89;99785.22;4940849;28;101939;-83
2021/07/04 10:22:51;;;;;;;6.03;3.83;;;;;;;29.73;33.62;99789.63;4941922;28;96612;-83
2021/07/04 10:25:17;;;;;;;7.78;4.38;;;;;;;29.87;33.05;99787.94;4957796;28;96907;-83
2021/07/04 10:27:43;;;;;;;4.30;3.90;;;;;;;29.71;34.21;99786.31;4958111;28;98520;-83
2021/07/04 10:30:09;;;;;;;5.20;3.90;;;;;;;29.76;34.53;99784.72;4924948;28;100891;-83
2021/07/04 10:32:34;;;;;;;5.28;3.75;;;;;;;29.95;34.28;99772.44;4941031;28;96617;-83
2021/07/04 10:35:10;;;;;;;4.40;4.00;;;;;;;29.71;33.22;99764.66;4942547;28;96819;-83
2021/07/04 10:37:39;;;;;;;4.95;4.45;;;;;;;29.70;33.58;99762.97;4956971;28;102060;-83
2021/07/04 10:40:09;;;;;;;6.47;4.32;;;;;;;29.85;34.98;99779.19;4957873;28;98684;-83
2021/07/04 10:42:37;;;;;;;4.82;4.32;;;;;;;29.88;35.39;99765.28;4940455;28;96612;-83
2021/07/04 10:45:03;;;;;;;5.53;4.43;;;;;;;29.83;34.61;99763.16;4941695;28;96871;-83
2021/07/04 10:47:36;;;;;;;7.20;3.88;;;;;;;29.83;35.29;99770.44;4940417;28;101466;-82
2021/07/04 10:50:10;;;;;;;6.97;4.13;;;;;;;29.88;35.37;99776.13;4941847;28;98112;-83
2021/07/04 10:52:40;;;;;;;5.82;4.00;;;;;;;29.58;36.75;99768.00;4923726;28;96575;-83
2021/07/04 10:55:11;;;;;;;6.90;4.22;;;;;;;29.70;37.12;99768.38;4924908;28;96965;-83
2021/07/04 10:57:49;;;;;;;5.57;4.00;;;;;;;29.61;37.10;99775.72;4940331;28;101672;-83
2021/07/04 11:00:25;;;;;;;4.50;4.10;;;;;;;29.64;37.40;99777.25;4957602;28;97936;-82
2021/07/04 11:02:54;;;;;;;10.50;4.30;;;;;;;29.50;37.73;99782.47;4941937;28;97156;-83
2021/07/04 11:05:41;;;;;;;7.13;3.85;;;;;;;29.27;37.69;99763.66;4956801;28;97006;-83
2021/07/04 11:08:14;;;;;;;4.57;4.18;;;;;;;29.37;37.78;99771.47;4956865;28;101473;-83
2021/07/04 11:10:48;;;;;;;4.20;3.75;;;;;;;29.35;37.59;99765.41;4940488;28;101946;-83
2021/07/04 11:13:20;;;;;;;6.13;4.35;;;;;;;29.41;37.96;99758.41;4957295;28;96668;-82
2021/07/04 11:15:50;;;;;;;5.43;4.47;;;;;;;29.53;37.72;99756.94;4957392;28;97007;-83
2021/07/04 11:18:18;;;;;;;4.68;4.20;;;;;;;29.44;38.03;99748.09;4940770;28;101069;-82
2021/07/04 11:20:44;;;;;;;4.60;4.15;;;;;;;29.51;37.89;99758.97;4940818;28;100882;-83
2021/07/04 11:23:30;;;;;;;6.00;4.13;;;;;;;29.50;37.97;99751.91;4957384;28;97133;-83
2021/07/04 11:26:01;;;;;;;4.97;4.13;;;;;;;29.51;38.19;99748.16;4957397;28;97114;-82
2021/07/04 11:28:44;;;;;;;5.97;4.50;;;;;;;29.63;37.63;99751.25;4939889;28;101758;-83
2021/07/04 11:31:13;;;;;;;5.50;4.00;;;;;;;29.71;38.06;99751.97;4920975;28;101746;-83